createdAt,value
2022-10-23T00:01:48.467Z,10.90
2022-10-23T00:04:19.027Z,10.90
2022-10-23T00:06:47.067Z,10.84
2022-10-23T00:09:17.496Z,10.84
2022-10-23T00:11:47.584Z,10.82
2022-10-23T00:14:16.312Z,10.81
2022-10-23T00:16:44.029Z,10.78
2022-10-23T00:19:13.350Z,10.75
2022-10-23T00:21:41.178Z,10.76
2022-10-23T00:26:42.465Z,10.77
2022-10-23T00:29:11.388Z,10.76
2022-10-23T00:31:39.302Z,10.73
2022-10-23T00:34:08.238Z,10.65
2022-10-23T00:36:38.207Z,10.64
2022-10-23T00:39:06.352Z,10.69
2022-10-23T00:41:33.913Z,10.66
2022-10-23T00:44:05.775Z,10.65
2022-10-23T00:46:34.559Z,10.64
2022-10-23T00:49:03.107Z,10.62
2022-10-23T00:51:32.574Z,10.60
2022-10-23T00:54:23.010Z,10.54
2022-10-23T00:56:50.931Z,10.52
2022-10-23T00:59:18.415Z,10.50
2022-10-23T01:01:46.024Z,10.51
2022-10-23T01:04:13.647Z,10.52
2022-10-23T01:06:46.254Z,10.49
2022-10-23T01:09:22.536Z,10.50
2022-10-23T01:11:55.862Z,10.44
2022-10-23T01:14:30.127Z,10.41
2022-10-23T01:17:03.750Z,10.44
2022-10-23T01:19:47.346Z,10.42
2022-10-23T01:22:34.111Z,10.40
2022-10-23T01:25:14.894Z,10.34
2022-10-23T01:27:49.195Z,10.29
2022-10-23T01:30:18.306Z,10.38
2022-10-23T01:32:50.004Z,10.41
2022-10-23T01:35:22.038Z,10.33
2022-10-23T01:37:55.014Z,10.34
2022-10-23T01:40:26.922Z,10.28
2022-10-23T01:43:01.066Z,10.27
2022-10-23T01:45:34.087Z,10.25
2022-10-23T01:48:04.249Z,10.25
2022-10-23T01:50:33.222Z,10.26
2022-10-23T01:53:00.803Z,10.18
2022-10-23T01:55:28.411Z,10.20
2022-10-23T01:57:58.050Z,10.24
2022-10-23T02:00:25.627Z,10.15
2022-10-23T02:02:54.955Z,10.16
2022-10-23T02:05:25.283Z,10.13
2022-10-23T02:07:53.982Z,10.19
2022-10-23T02:10:22.342Z,10.17
2022-10-23T02:12:58.151Z,10.12
2022-10-23T02:15:32.442Z,10.09
2022-10-23T02:18:09.533Z,10.10
2022-10-23T02:20:41.453Z,10.05
2022-10-23T02:23:18.139Z,9.94
2022-10-23T02:25:51.778Z,10.04
2022-10-23T02:28:23.606Z,10.09
2022-10-23T02:30:54.418Z,10.04
2022-10-23T02:33:22.490Z,9.94
2022-10-23T02:35:50.653Z,10.05
2022-10-23T02:38:30.379Z,9.96
2022-10-23T02:41:01.098Z,9.98
2022-10-23T02:43:37.682Z,9.89
2022-10-23T02:46:15.515Z,9.93
2022-10-23T02:48:49.754Z,9.91
2022-10-23T02:51:24.846Z,9.93
2022-10-23T02:54:03.536Z,9.86
2022-10-23T02:56:41.289Z,9.86
2022-10-23T02:59:16.448Z,9.86
2022-10-23T03:01:51.625Z,9.85
2022-10-23T03:04:22.178Z,9.85
2022-10-23T03:06:51.283Z,9.80
2022-10-23T03:09:19.974Z,9.83
2022-10-23T03:11:47.521Z,9.83
2022-10-23T03:14:15.427Z,9.84
2022-10-23T03:16:42.894Z,9.80
2022-10-23T03:21:44.821Z,9.79
2022-10-23T03:24:12.291Z,9.72
2022-10-23T03:26:39.737Z,9.73
2022-10-23T03:29:07.270Z,9.72
2022-10-23T03:31:34.714Z,9.74
2022-10-23T03:34:04.084Z,9.69
2022-10-23T03:36:35.115Z,9.69
2022-10-23T03:39:03.962Z,9.68
2022-10-23T03:41:31.480Z,9.68
2022-10-23T03:43:59.110Z,9.60
2022-10-23T03:46:26.602Z,9.58
2022-10-23T03:48:55.350Z,9.59
2022-10-23T03:51:22.812Z,9.61
2022-10-23T03:53:51.624Z,9.61
2022-10-23T03:56:19.162Z,9.63
2022-10-23T03:58:46.654Z,9.60
2022-10-23T04:01:14.384Z,9.26
2022-10-23T04:03:41.881Z,9.54
2022-10-23T04:06:09.750Z,9.51
2022-10-23T04:08:37.211Z,9.35
2022-10-23T04:11:06.362Z,9.52
2022-10-23T04:13:33.810Z,9.50
2022-10-23T04:16:01.286Z,9.54
2022-10-23T04:18:28.754Z,9.49
2022-10-23T04:20:56.849Z,9.44
2022-10-23T04:23:24.295Z,9.58
2022-10-23T04:25:51.791Z,9.50
2022-10-23T04:28:20.582Z,8.50
2022-10-23T04:30:48.018Z,9.10
2022-10-23T04:33:15.534Z,9.16
2022-10-23T04:35:43.066Z,9.38
2022-10-23T04:38:10.586Z,9.42
2022-10-23T04:40:38.205Z,9.38
2022-10-23T04:43:06.058Z,9.37
2022-10-23T04:45:34.853Z,9.17
2022-10-23T04:48:02.607Z,8.74
2022-10-23T04:50:30.069Z,8.64
2022-10-23T04:52:58.960Z,8.85
2022-10-23T04:55:26.685Z,8.93
2022-10-23T04:57:54.127Z,9.13
2022-10-23T05:00:21.813Z,9.13
2022-10-23T05:02:50.640Z,8.91
2022-10-23T05:05:18.247Z,9.32
2022-10-23T05:07:46.052Z,9.34
2022-10-23T05:10:13.593Z,9.38
2022-10-23T05:12:41.036Z,9.42
2022-10-23T05:15:08.909Z,9.16
2022-10-23T05:17:39.271Z,9.35
2022-10-23T05:20:12.696Z,9.36
2022-10-23T05:22:43.769Z,9.33
2022-10-23T05:25:11.366Z,9.35
2022-10-23T05:27:38.857Z,9.29
2022-10-23T05:30:07.517Z,9.24
2022-10-23T05:32:35.677Z,9.31
2022-10-23T05:35:07.609Z,9.34
2022-10-23T05:37:39.278Z,9.31
2022-10-23T05:40:07.840Z,8.98
2022-10-23T05:42:37.215Z,8.98
2022-10-23T05:45:08.069Z,9.23
2022-10-23T05:47:35.740Z,9.18
2022-10-23T05:50:03.229Z,9.31
2022-10-23T05:52:30.729Z,9.01
2022-10-23T05:54:59.529Z,9.07
2022-10-23T05:57:26.984Z,9.05
2022-10-23T05:59:54.469Z,9.24
2022-10-23T06:02:21.997Z,9.23
2022-10-23T06:04:49.538Z,9.27
2022-10-23T06:07:17.307Z,9.15
2022-10-23T06:09:44.764Z,9.25
2022-10-23T06:12:13.617Z,9.18
2022-10-23T06:14:41.108Z,9.39
2022-10-23T06:17:08.629Z,9.34
2022-10-23T06:19:36.112Z,9.40
2022-10-23T06:22:05.210Z,9.50
2022-10-23T06:24:32.752Z,9.44
2022-10-23T06:27:00.297Z,9.52
2022-10-23T06:29:29.268Z,9.57
2022-10-23T06:31:57.073Z,9.50
2022-10-23T06:34:24.801Z,9.51
2022-10-23T06:36:52.496Z,9.63
2022-10-23T06:39:21.168Z,9.56
2022-10-23T06:41:48.664Z,9.59
2022-10-23T06:44:16.594Z,9.55
2022-10-23T06:46:47.123Z,9.71
2022-10-23T06:49:16.128Z,9.67
2022-10-23T06:51:43.793Z,9.66
2022-10-23T06:54:12.242Z,9.61
2022-10-23T06:56:39.789Z,9.70
2022-10-23T06:59:08.587Z,9.66
2022-10-23T07:01:36.713Z,9.59
2022-10-23T07:04:05.741Z,9.65
2022-10-23T07:06:33.197Z,9.59
2022-10-23T07:09:00.816Z,9.74
2022-10-23T07:11:28.391Z,9.77
2022-10-23T07:13:55.932Z,9.75
2022-10-23T07:16:24.376Z,9.77
2022-10-23T07:18:59.242Z,9.75
2022-10-23T07:21:29.521Z,9.76
2022-10-23T07:23:56.976Z,9.77
2022-10-23T07:26:24.957Z,9.86
2022-10-23T07:28:55.033Z,9.86
2022-10-23T07:31:25.663Z,9.91
2022-10-23T07:33:57.836Z,9.98
2022-10-23T07:36:25.466Z,9.95
2022-10-23T07:38:54.316Z,9.95
2022-10-23T07:41:22.222Z,10.02
2022-10-23T07:43:49.714Z,10.05
2022-10-23T07:46:17.257Z,10.12
2022-10-23T07:48:44.732Z,10.20
2022-10-23T07:51:14.296Z,10.19
2022-10-23T07:53:42.390Z,10.18
2022-10-23T07:56:17.305Z,10.22
2022-10-23T07:58:45.066Z,10.27
2022-10-23T08:01:17.935Z,10.42
2022-10-23T08:03:45.664Z,10.34
2022-10-23T08:06:13.346Z,10.47
2022-10-23T08:08:40.919Z,10.50
2022-10-23T08:11:08.611Z,10.51
2022-10-23T08:13:37.467Z,10.55
2022-10-23T08:16:05.489Z,10.53
2022-10-23T08:18:33.022Z,10.61
2022-10-23T08:21:01.720Z,10.67
2022-10-23T08:23:29.454Z,10.62
2022-10-23T08:26:01.469Z,10.72
2022-10-23T08:28:29.713Z,10.71
2022-10-23T08:30:59.300Z,10.82
2022-10-23T08:33:26.837Z,10.82
2022-10-23T08:35:54.304Z,10.91
2022-10-23T08:38:21.754Z,10.83
2022-10-23T08:40:50.488Z,11.01
2022-10-23T08:43:23.561Z,10.96
2022-10-23T08:45:56.488Z,11.04
2022-10-23T08:48:29.493Z,11.07
2022-10-23T08:51:00.408Z,11.17
2022-10-23T08:53:33.706Z,11.18
2022-10-23T08:56:05.332Z,11.18
2022-10-23T08:58:40.645Z,11.43
2022-10-23T09:01:29.372Z,11.47
2022-10-23T09:03:58.600Z,11.64
2022-10-23T09:06:35.177Z,11.68
2022-10-23T09:09:18.485Z,11.57
2022-10-23T09:11:53.465Z,11.53
2022-10-23T09:14:43.406Z,11.46
2022-10-23T09:17:19.271Z,11.90
2022-10-23T09:19:48.151Z,11.57
2022-10-23T09:22:15.635Z,11.69
2022-10-23T09:24:44.287Z,11.86
2022-10-23T09:27:16.679Z,11.80
2022-10-23T09:29:50.364Z,12.06
2022-10-23T09:32:18.296Z,12.23
2022-10-23T09:34:55.238Z,11.94
2022-10-23T09:37:25.380Z,12.14
2022-10-23T09:40:03.519Z,12.50
2022-10-23T09:42:31.081Z,12.21
2022-10-23T09:44:58.698Z,12.56
2022-10-23T09:47:28.003Z,12.82
2022-10-23T09:49:58.684Z,12.71
2022-10-23T09:52:31.591Z,12.66
2022-10-23T09:55:01.216Z,12.96
2022-10-23T09:57:32.691Z,12.80
2022-10-23T10:00:03.014Z,13.02
2022-10-23T10:02:32.904Z,13.09
2022-10-23T10:05:21.919Z,12.91
2022-10-23T10:07:56.920Z,13.06
2022-10-23T10:10:24.839Z,13.43
2022-10-23T10:12:59.347Z,13.28
2022-10-23T10:15:29.103Z,13.25
2022-10-23T10:18:11.431Z,13.46
2022-10-23T10:20:52.524Z,13.43
2022-10-23T10:23:29.795Z,13.46
2022-10-23T10:26:08.196Z,13.19
2022-10-23T10:28:51.238Z,13.25
2022-10-23T10:31:25.446Z,13.69
2022-10-23T10:34:03.587Z,13.41
2022-10-23T10:36:47.935Z,13.50
2022-10-23T10:39:26.666Z,13.97
2022-10-23T10:42:05.215Z,13.87
2022-10-23T10:44:47.867Z,13.76
2022-10-23T10:47:22.691Z,13.77
2022-10-23T10:50:04.395Z,13.92
2022-10-23T10:52:39.047Z,13.99
2022-10-23T10:55:18.724Z,13.89
2022-10-23T10:57:49.552Z,13.78
2022-10-23T11:00:19.691Z,14.16
2022-10-23T11:02:49.700Z,14.05
2022-10-23T11:05:27.611Z,14.41
2022-10-23T11:08:00.639Z,14.77
2022-10-23T11:10:29.268Z,14.57
2022-10-23T11:12:57.823Z,14.96
2022-10-23T11:15:34.896Z,14.45
2022-10-23T11:18:05.995Z,14.99
2022-10-23T11:20:46.506Z,15.13
2022-10-23T11:23:40.723Z,14.95
2022-10-23T11:26:27.031Z,14.89
2022-10-23T11:29:12.238Z,15.08
2022-10-23T11:31:45.067Z,14.43
2022-10-23T11:35:01.132Z,14.63
2022-10-23T11:37:28.788Z,14.52
2022-10-23T11:40:20.454Z,14.55
2022-10-23T11:42:50.387Z,15.13
2022-10-23T11:45:31.911Z,15.30
2022-10-23T11:48:00.790Z,15.06
2022-10-23T11:50:31.155Z,14.88
2022-10-23T11:53:19.556Z,15.28
2022-10-23T11:56:00.858Z,15.16
2022-10-23T11:58:32.959Z,15.01
2022-10-23T12:01:05.155Z,15.07
2022-10-23T12:03:48.486Z,15.03
2022-10-23T12:06:23.781Z,14.65
2022-10-23T12:08:54.617Z,15.11
2022-10-23T12:11:45.071Z,15.37
2022-10-23T12:14:33.668Z,15.60
2022-10-23T12:17:01.871Z,15.22
2022-10-23T12:19:30.859Z,15.88
2022-10-23T12:22:01.308Z,15.35
2022-10-23T12:24:56.324Z,15.29
2022-10-23T12:27:34.263Z,15.31
2022-10-23T12:30:15.367Z,15.39
2022-10-23T12:32:54.584Z,15.29
2022-10-23T12:35:53.363Z,15.54
2022-10-23T12:38:25.294Z,15.50
2022-10-23T12:40:55.104Z,15.64
2022-10-23T12:43:29.475Z,15.44
2022-10-23T12:46:01.539Z,15.44
2022-10-23T12:48:29.042Z,15.27
2022-10-23T12:50:57.338Z,15.57
2022-10-23T12:53:25.140Z,15.69
2022-10-23T12:55:57.174Z,15.61
2022-10-23T12:58:29.962Z,15.54
2022-10-23T13:00:59.129Z,15.61
2022-10-23T13:03:29.811Z,15.03
2022-10-23T13:06:00.231Z,15.71
2022-10-23T13:08:33.006Z,15.18
2022-10-23T13:11:01.447Z,15.31
2022-10-23T13:13:30.451Z,15.31
2022-10-23T13:15:58.118Z,15.35
2022-10-23T13:18:25.619Z,15.18
2022-10-23T13:20:59.147Z,15.65
2022-10-23T13:23:31.461Z,15.25
2022-10-23T13:26:00.222Z,15.53
2022-10-23T13:28:30.570Z,15.22
2022-10-23T13:31:04.779Z,15.60
2022-10-23T13:33:35.766Z,15.29
2022-10-23T13:36:06.150Z,15.38
2022-10-23T13:38:35.834Z,15.16
2022-10-23T13:41:05.883Z,15.15
2022-10-23T13:43:35.266Z,15.36
2022-10-23T13:46:02.778Z,15.20
2022-10-23T13:48:31.210Z,15.46
2022-10-23T13:51:07.985Z,15.38
2022-10-23T13:53:35.474Z,15.27
2022-10-23T13:56:02.936Z,15.40
2022-10-23T13:58:30.443Z,15.34
2022-10-23T14:00:59.849Z,15.31
2022-10-23T14:03:27.415Z,14.98
2022-10-23T14:05:54.847Z,15.10
2022-10-23T14:08:22.567Z,14.89
2022-10-23T14:10:50.048Z,15.13
2022-10-23T14:13:18.591Z,15.17
2022-10-23T14:15:53.370Z,14.88
2022-10-23T14:18:22.239Z,15.16
2022-10-23T14:20:49.694Z,14.90
2022-10-23T14:23:19.917Z,14.99
2022-10-23T14:25:47.378Z,15.41
2022-10-23T14:28:14.874Z,15.15
2022-10-23T14:30:42.374Z,15.18
2022-10-23T14:33:09.843Z,15.08
2022-10-23T14:35:43.186Z,15.03
2022-10-23T14:38:10.702Z,15.08
2022-10-23T14:40:38.459Z,15.34
2022-10-23T14:43:05.942Z,15.17
2022-10-23T14:45:33.446Z,14.96
2022-10-23T14:48:02.415Z,15.08
2022-10-23T14:50:31.967Z,14.90
2022-10-23T14:55:33.224Z,14.85
2022-10-23T14:58:00.718Z,14.92
2022-10-23T15:00:28.299Z,14.90
2022-10-23T15:02:55.826Z,14.89
2022-10-23T15:05:23.391Z,14.85
2022-10-23T15:07:50.897Z,14.83
2022-10-23T15:10:19.884Z,14.90
2022-10-23T15:12:47.378Z,14.76
2022-10-23T15:15:14.963Z,14.67
2022-10-23T15:17:42.445Z,14.74
2022-10-23T15:20:10.985Z,14.80
2022-10-23T15:22:38.475Z,14.64
2022-10-23T15:25:07.183Z,14.63
2022-10-23T15:27:36.151Z,14.58
2022-10-23T15:30:03.984Z,14.57
2022-10-23T15:32:31.427Z,14.48
2022-10-23T15:34:59.997Z,14.46
2022-10-23T15:37:30.433Z,14.47
2022-10-23T15:40:01.224Z,14.42
2022-10-23T15:42:29.963Z,14.39
2022-10-23T15:44:58.863Z,14.42
2022-10-23T15:47:26.429Z,14.39
2022-10-23T15:49:56.950Z,14.34
2022-10-23T15:52:24.430Z,14.32
2022-10-23T15:54:51.893Z,14.27
2022-10-23T15:57:19.394Z,14.26
2022-10-23T15:59:47.770Z,14.30
2022-10-23T16:02:16.515Z,14.23
2022-10-23T16:04:44.071Z,14.24
2022-10-23T16:07:11.585Z,14.22
2022-10-23T16:09:39.059Z,14.21
2022-10-23T16:12:07.106Z,14.20
2022-10-23T16:14:34.593Z,14.17
2022-10-23T16:17:02.086Z,14.16
2022-10-23T16:19:30.925Z,14.13
2022-10-23T16:21:58.454Z,14.13
2022-10-23T16:24:25.969Z,14.13
2022-10-23T16:26:56.253Z,14.08
2022-10-23T16:29:25.524Z,14.08
2022-10-23T16:31:54.457Z,14.06
2022-10-23T16:34:22.029Z,14.08
2022-10-23T16:36:51.005Z,14.01
2022-10-23T16:39:20.233Z,14.02
2022-10-23T16:41:47.690Z,14.02
2022-10-23T16:44:15.294Z,13.90
2022-10-23T16:46:42.758Z,13.90
2022-10-23T16:49:13.821Z,13.91
2022-10-23T16:51:41.293Z,13.94
2022-10-23T16:54:10.446Z,13.86
2022-10-23T16:56:37.939Z,13.91
2022-10-23T16:59:06.644Z,13.89
2022-10-23T17:01:34.758Z,13.88
2022-10-23T17:04:02.384Z,13.89
2022-10-23T17:06:31.813Z,13.89
2022-10-23T17:09:00.579Z,13.84
2022-10-23T17:11:30.818Z,13.87
2022-10-23T17:14:02.643Z,13.84
2022-10-23T17:16:32.224Z,13.74
2022-10-23T17:19:00.095Z,13.75
2022-10-23T17:21:27.676Z,13.72
2022-10-23T17:23:55.207Z,13.76
2022-10-23T17:26:23.191Z,13.66
2022-10-23T17:31:52.497Z,13.67
2022-10-23T17:34:22.584Z,13.62
2022-10-23T17:36:52.342Z,13.53
2022-10-23T17:39:22.007Z,13.61
2022-10-23T17:41:50.157Z,13.62
2022-10-23T17:44:18.009Z,13.49
2022-10-23T17:46:45.487Z,13.54
2022-10-23T17:49:14.302Z,13.34
2022-10-23T17:51:42.203Z,13.56
2022-10-23T17:54:14.452Z,13.54
2022-10-23T17:56:41.947Z,13.41
2022-10-23T17:59:12.773Z,13.35
2022-10-23T18:01:42.603Z,13.44
2022-10-23T18:04:10.481Z,13.54
2022-10-23T18:06:45.357Z,13.55
2022-10-23T18:09:13.061Z,13.58
2022-10-23T18:11:45.267Z,13.54
2022-10-23T18:14:14.847Z,13.46
2022-10-23T18:16:42.645Z,13.55
2022-10-23T18:19:11.728Z,13.43
2022-10-23T18:21:40.534Z,13.47
2022-10-23T18:24:08.105Z,13.42
2022-10-23T18:26:38.968Z,13.45
2022-10-23T18:29:08.477Z,13.49
2022-10-23T18:31:37.139Z,13.46
2022-10-23T18:34:07.631Z,13.54
2022-10-23T18:36:38.241Z,13.45
2022-10-23T18:39:08.857Z,13.48
2022-10-23T18:41:38.849Z,13.46
2022-10-23T18:44:07.408Z,13.34
2022-10-23T18:46:35.250Z,13.47
2022-10-23T18:49:02.842Z,13.34
2022-10-23T18:51:33.700Z,13.43
2022-10-23T18:54:02.293Z,13.47
2022-10-23T18:56:31.357Z,13.45
2022-10-23T18:59:01.625Z,13.43
2022-10-23T19:01:30.619Z,13.43
2022-10-23T19:04:00.005Z,13.37
2022-10-23T19:06:29.347Z,13.42
2022-10-23T19:08:57.145Z,13.31
2022-10-23T19:11:27.098Z,13.20
2022-10-23T19:13:55.966Z,13.37
2022-10-23T19:16:26.378Z,13.29
2022-10-23T19:18:57.478Z,13.35
2022-10-23T19:21:30.985Z,13.34
2022-10-23T19:24:01.186Z,13.35
2022-10-23T19:26:30.721Z,13.36
2022-10-23T19:29:00.015Z,13.43
2022-10-23T19:31:27.906Z,13.47
2022-10-23T19:33:55.411Z,13.49
2022-10-23T19:36:23.700Z,13.51
2022-10-23T19:38:51.158Z,13.52
2022-10-23T19:41:18.843Z,13.57
2022-10-23T19:43:46.364Z,13.56
2022-10-23T19:46:16.099Z,13.57
2022-10-23T19:48:44.846Z,13.55
2022-10-23T19:51:13.726Z,13.58
2022-10-23T19:53:42.522Z,13.56
2022-10-23T19:56:12.335Z,13.56
2022-10-23T19:58:40.616Z,13.58
2022-10-23T20:01:09.913Z,13.60
2022-10-23T20:03:39.019Z,13.53
2022-10-23T20:06:09.379Z,13.55
2022-10-23T20:08:36.872Z,13.51
2022-10-23T20:11:04.520Z,13.61
2022-10-23T20:13:31.996Z,13.59
2022-10-23T20:15:59.787Z,13.54
2022-10-23T20:18:27.468Z,13.53
2022-10-23T20:20:56.278Z,13.35
2022-10-23T20:23:23.840Z,13.25
2022-10-23T20:25:51.309Z,13.37
2022-10-23T20:28:18.890Z,13.32
2022-10-23T20:30:46.412Z,13.43
2022-10-23T20:33:13.907Z,13.26
2022-10-23T20:35:42.610Z,13.15
2022-10-23T20:38:11.652Z,13.07
2022-10-23T20:40:39.075Z,12.87
2022-10-23T20:43:06.551Z,12.82
2022-10-23T20:45:34.785Z,12.81
2022-10-23T20:48:02.266Z,12.76
2022-10-23T20:50:29.726Z,13.13
2022-10-23T20:52:57.194Z,13.22
2022-10-23T20:55:26.051Z,13.33
2022-10-23T20:57:54.026Z,13.29
2022-10-23T21:00:21.687Z,13.32
2022-10-23T21:02:52.115Z,13.22
2022-10-23T21:05:19.996Z,13.18
2022-10-23T21:07:47.458Z,13.24
2022-10-23T21:10:14.912Z,13.34
2022-10-23T21:12:43.966Z,13.34
2022-10-23T21:15:11.950Z,13.21
2022-10-23T21:17:40.790Z,13.07
2022-10-23T21:20:08.758Z,13.05
2022-10-23T21:22:36.248Z,13.01
2022-10-23T21:25:03.968Z,12.92
2022-10-23T21:27:31.752Z,12.90
2022-10-23T21:30:00.564Z,13.13
2022-10-23T21:32:28.080Z,13.00
2022-10-23T21:34:55.804Z,13.16
2022-10-23T21:37:24.880Z,13.08
2022-10-23T21:39:52.344Z,13.12
2022-10-23T21:42:19.891Z,13.15
2022-10-23T21:44:47.368Z,13.18
2022-10-23T21:47:16.297Z,13.23
2022-10-23T21:49:43.988Z,13.17
2022-10-23T21:52:13.171Z,13.27
2022-10-23T21:54:42.640Z,13.21
2022-10-23T21:57:14.099Z,13.25
2022-10-23T21:59:41.876Z,13.26
2022-10-23T22:02:10.034Z,13.31
2022-10-23T22:04:39.358Z,13.38
2022-10-23T22:07:07.469Z,13.37
2022-10-23T22:09:35.592Z,13.48
2022-10-23T22:12:03.086Z,13.56
2022-10-23T22:14:30.736Z,13.73
2022-10-23T22:16:58.772Z,13.74
2022-10-23T22:19:26.444Z,13.72
2022-10-23T22:21:55.509Z,13.81
2022-10-23T22:24:22.969Z,13.83
2022-10-23T22:26:52.384Z,13.84
2022-10-23T22:29:22.999Z,13.90
2022-10-23T22:31:50.701Z,14.01
2022-10-23T22:34:28.810Z,14.19
2022-10-23T22:37:10.321Z,14.13
2022-10-23T22:39:38.284Z,14.19
2022-10-23T22:42:05.824Z,14.49
2022-10-23T22:44:33.356Z,14.39
2022-10-23T22:47:00.821Z,14.23
2022-10-23T22:49:28.336Z,14.30
2022-10-23T22:51:55.796Z,14.40
2022-10-23T22:54:24.742Z,14.43
2022-10-23T22:56:52.219Z,14.50
2022-10-23T22:59:19.688Z,14.46
2022-10-23T23:01:48.977Z,14.40
2022-10-23T23:04:37.756Z,14.48
2022-10-23T23:07:05.792Z,14.50
2022-10-23T23:09:36.676Z,14.40
2022-10-23T23:12:04.417Z,14.53
2022-10-23T23:14:31.871Z,14.65
2022-10-23T23:16:59.393Z,14.51
2022-10-23T23:19:28.419Z,14.55
2022-10-23T23:21:56.604Z,14.49
2022-10-23T23:24:24.336Z,14.55
2022-10-23T23:26:53.228Z,14.54
2022-10-23T23:29:20.701Z,14.51
2022-10-23T23:31:48.167Z,14.54
2022-10-23T23:34:15.612Z,14.48
2022-10-23T23:36:43.179Z,14.51
2022-10-23T23:39:11.064Z,14.51
2022-10-23T23:41:38.765Z,14.51
2022-10-23T23:44:08.318Z,14.52
2022-10-23T23:46:35.830Z,14.50
2022-10-23T23:49:03.272Z,14.46
2022-10-23T23:51:30.775Z,14.52
2022-10-23T23:53:58.264Z,14.55
2022-10-23T23:56:25.841Z,14.61
2022-10-23T23:58:53.452Z,14.57
